Aviation Digital Data Service (ADDS)

Output produced by METARs form (2155 UTC 20 June 2019)
found at http://www.aviationweather.gov/metar/data/
 
KMIV 202122Z AUTO 28008KT 10SM FEW027 FEW046 SCT075 26/23 A2950 RMK AO2 PK WND 27027/2059 LTG DSNT NE AND E RAE18 TSE09 P0017 T02610233
KMIV 202132Z 2022/2118 21008KT P6SM SHRA FEW030 BKN045 OVC070 
     TEMPO 2022/2023 3SM SHRA OVC020 
     FM210000 25009KT 6SM SHRA VCTS BKN025CB 
     FM210700 25007KT 6SM BR OVC025 
     FM211100 26008KT 6SM SHRA BR BKN015 
     FM211500 31013G22KT 6SM BR BKN025